Time;durP1;ratioP1;P1;durP2;ratioP2;P2;SDS_P1;SDS_P2;PMS_P1;PMS_P2;Temp;Humidity;BMP_temperature;BMP_pressure;BME280_temperature;BME280_humidity;BME280_pressure;Samples;Min_cycle;Max_cycle;Signal;HPM_P1;HPM_P2
2023/03/23 00:01:13;;;;;;;0.28;0.28;;;;;;;9.41;100.00;99695.34;6118658;23;20465;-87
2023/03/23 00:03:40;;;;;;;0.63;0.63;;;;;;;9.38;100.00;99694.19;6118831;23;20046;-86
2023/03/23 00:06:07;;;;;;;0.82;0.82;;;;;;;9.38;100.00;99692.66;6071293;23;20069;-87
2023/03/23 00:08:37;;;;;;;0.38;0.38;;;;;;;9.33;100.00;99694.75;6095305;23;20013;-86
2023/03/23 00:11:04;;;;;;;0.57;0.52;;;;;;;9.30;100.00;99687.28;6095992;23;20218;-86
2023/03/23 00:13:30;;;;;;;0.10;0.10;;;;;;;9.15;100.00;99669.53;6119898;23;20028;-86
2023/03/23 00:15:56;;;;;;;0.65;0.65;;;;;;;9.28;100.00;99694.50;6121697;23;20014;-87
2023/03/23 00:18:22;;;;;;;0.80;0.80;;;;;;;9.29;100.00;99685.75;6095907;23;20012;-87
2023/03/23 00:20:49;;;;;;;0.22;0.22;;;;;;;9.26;100.00;99697.69;6096166;23;20041;-87
2023/03/23 00:23:22;;;;;;;0.85;0.85;;;;;;;9.22;100.00;99691.47;6094412;23;20057;-86
2023/03/23 00:25:53;;;;;;;0.10;0.10;;;;;;;9.14;100.00;99690.09;6096193;23;20441;-87
2023/03/23 00:28:24;;;;;;;0.10;0.10;;;;;;;9.18;100.00;99690.78;6143723;23;20021;-86
2023/03/23 00:31:02;;;;;;;1.85;1.10;;;;;;;9.17;100.00;99696.78;6118763;23;20017;-87
2023/03/23 00:33:30;;;;;;;1.00;0.90;;;;;;;9.15;100.00;99693.66;6094189;23;20013;-86
2023/03/23 00:35:56;;;;;;;0.90;0.43;;;;;;;9.07;100.00;99676.47;6143029;23;20029;-87
2023/03/23 00:38:23;;;;;;;1.42;1.33;;;;;;;9.13;100.00;99683.03;6094954;23;20076;-86
2023/03/23 00:40:49;;;;;;;0.10;0.10;;;;;;;9.16;100.00;99671.09;6120538;23;20133;-87
2023/03/23 00:43:16;;;;;;;0.65;0.65;;;;;;;9.22;100.00;99672.09;6094300;23;20018;-86
2023/03/23 00:45:44;;;;;;;0.47;0.30;;;;;;;9.24;100.00;99671.66;6094665;23;20014;-87
2023/03/23 00:48:14;;;;;;;0.55;0.55;;;;;;;9.20;100.00;99662.69;6120102;23;20006;-86
2023/03/23 00:50:40;;;;;;;0.00;0.00;;;;;;;9.18;100.00;99654.81;6093716;23;20038;-86
2023/03/23 00:53:06;;;;;;;0.40;0.40;;;;;;;9.15;100.00;99652.94;6093780;23;20145;-86
2023/03/23 00:55:33;;;;;;;0.75;0.68;;;;;;;9.21;100.00;99659.50;6118705;23;20010;-87
2023/03/23 00:58:02;;;;;;;0.50;0.50;;;;;;;9.18;100.00;99654.81;6119333;23;20044;-86
2023/03/23 01:00:28;;;;;;;0.00;0.00;;;;;;;9.20;100.00;99652.41;6092636;23;20045;-87
2023/03/23 01:02:53;;;;;;;0.25;0.25;;;;;;;9.15;100.00;99649.38;6093907;23;20014;-86
2023/03/23 01:05:20;;;;;;;0.57;0.57;;;;;;;9.08;100.00;99642.06;6119537;23;20354;-86
2023/03/23 01:07:46;;;;;;;0.13;0.13;;;;;;;9.01;100.00;99641.47;6093519;23;20009;-87
2023/03/23 01:10:15;;;;;;;0.38;0.38;;;;;;;8.99;100.00;99638.34;6119039;23;20444;-86
2023/03/23 01:12:45;;;;;;;0.03;0.03;;;;;;;8.99;100.00;99639.13;6143731;23;20013;-87
2023/03/23 01:15:15;;;;;;;0.43;0.43;;;;;;;8.93;100.00;99649.19;6122067;23;20021;-86
2023/03/23 01:17:42;;;;;;;0.73;0.52;;;;;;;8.86;100.00;99646.59;6120605;23;20022;-87
2023/03/23 01:20:08;;;;;;;1.27;1.17;;;;;;;8.81;100.00;99655.44;6119894;23;20486;-86
2023/03/23 01:22:34;;;;;;;1.45;1.35;;;;;;;8.80;100.00;99648.34;6121485;23;20053;-87
2023/03/23 01:24:59;;;;;;;0.43;0.43;;;;;;;8.76;100.00;99651.19;6096087;23;20022;-87
2023/03/23 01:27:25;;;;;;;3.92;1.42;;;;;;;8.68;100.00;99641.53;6118928;23;20017;-87
2023/03/23 01:29:51;;;;;;;1.27;0.52;;;;;;;8.71;100.00;99651.72;6096081;23;20010;-87
2023/03/23 01:32:17;;;;;;;0.57;0.57;;;;;;;8.66;100.00;99648.69;6071237;23;20017;-86
2023/03/23 01:34:42;;;;;;;0.10;0.10;;;;;;;8.66;100.00;99648.69;6119854;23;20056;-87
2023/03/23 01:37:08;;;;;;;1.15;1.15;;;;;;;8.65;100.00;99644.38;6095507;23;20096;-87
2023/03/23 01:39:36;;;;;;;0.30;0.30;;;;;;;8.61;100.00;99652.00;6143474;23;20018;-87
2023/03/23 01:42:01;;;;;;;0.10;0.10;;;;;;;8.62;100.00;99651.53;6094080;23;20029;-87
2023/03/23 01:44:30;;;;;;;0.05;0.05;;;;;;;8.61;100.00;99646.47;6144165;23;20025;-87
2023/03/23 01:47:00;;;;;;;0.40;0.40;;;;;;;8.56;100.00;99616.56;6144026;23;20092;-87
2023/03/23 01:49:33;;;;;;;0.20;0.20;;;;;;;8.53;100.00;99626.50;6092797;23;20180;-86
2023/03/23 01:52:05;;;;;;;0.55;0.55;;;;;;;8.56;100.00;99633.16;6120422;23;20093;-86
2023/03/23 01:54:31;;;;;;;0.00;0.00;;;;;;;8.65;100.00;99636.09;6119457;23;20029;-86
2023/03/23 01:57:06;;;;;;;2.38;1.75;;;;;;;8.65;100.00;99616.72;6096237;23;20012;-87
2023/03/23 01:59:33;;;;;;;0.52;0.52;;;;;;;8.76;100.00;99625.53;6095367;23;20026;-86
2023/03/23 02:05:33;;;;;;;2.05;0.80;;;;;;;8.69;100.00;99603.59;6059785;23;20454;-88
2023/03/23 02:08:08;;;;;;;0.13;0.13;;;;;;;8.75;100.00;99621.97;6086177;23;20082;-91
2023/03/23 02:10:36;;;;;;;0.22;0.22;;;;;;;8.74;100.00;99622.41;6064337;23;20313;-91
2023/03/23 02:13:04;;;;;;;0.10;0.10;;;;;;;8.52;100.00;99599.28;6041366;23;20015;-91
2023/03/23 02:15:38;;;;;;;0.20;0.20;;;;;;;8.58;100.00;99625.19;6089186;23;20029;-91
2023/03/23 02:18:15;;;;;;;0.20;0.20;;;;;;;8.54;100.00;99624.50;6088649;23;20018;-91
2023/03/23 02:21:17;;;;;;;0.43;0.15;;;;;;;8.45;100.00;99610.53;6065796;23;20015;-91
2023/03/23 02:23:45;;;;;;;1.90;0.98;;;;;;;8.36;100.00;99619.44;6087760;23;20037;-92
2023/03/23 02:26:23;;;;;;;0.25;0.25;;;;;;;8.37;100.00;99621.75;6087024;23;20097;-91
2023/03/23 02:29:03;;;;;;;0.20;0.20;;;;;;;8.40;100.00;99620.91;6065944;23;20073;-89
2023/03/23 02:31:58;;;;;;;0.13;0.13;;;;;;;8.45;100.00;99621.59;6086382;23;20050;-91
2023/03/23 02:34:34;;;;;;;0.20;0.20;;;;;;;8.45;100.00;99627.13;6086937;23;20514;-91
2023/03/23 02:37:02;;;;;;;0.25;0.25;;;;;;;8.47;100.00;99622.69;6098357;23;20090;-89
2023/03/23 02:39:30;;;;;;;0.50;0.50;;;;;;;8.47;100.00;99619.16;6035698;23;20019;-90
2023/03/23 02:41:59;;;;;;;0.00;0.00;;;;;;;8.50;100.00;99621.81;6111724;23;20026;-89
2023/03/23 02:44:29;;;;;;;0.30;0.30;;;;;;;8.48;100.00;99623.47;6039267;23;20018;-91
2023/03/23 02:46:57;;;;;;;0.10;0.10;;;;;;;8.40;100.00;99609.06;6039424;23;20167;-90
2023/03/23 02:49:25;;;;;;;0.22;0.22;;;;;;;8.37;100.00;99610.69;6038975;23;20011;-90
2023/03/23 02:51:53;;;;;;;0.55;0.55;;;;;;;8.38;100.00;99617.78;6086858;23;20022;-90
2023/03/23 02:54:19;;;;;;;0.25;0.25;;;;;;;8.34;100.00;99617.09;6038769;23;20018;-89
2023/03/23 02:56:45;;;;;;;0.40;0.40;;;;;;;8.35;100.00;99618.66;6039132;23;20003;-90
2023/03/23 02:59:19;;;;;;;0.20;0.20;;;;;;;8.36;100.00;99609.16;6016919;23;20026;-90
2023/03/23 03:01:58;;;;;;;1.08;0.98;;;;;;;8.43;100.00;99622.78;6066757;23;20326;-89
2023/03/23 03:04:26;;;;;;;0.22;0.22;;;;;;;8.45;100.00;99621.59;6067073;23;20101;-89
2023/03/23 03:07:00;;;;;;;0.08;0.08;;;;;;;8.47;100.00;99627.44;6043086;23;20262;-89
2023/03/23 03:09:48;;;;;;;0.60;0.60;;;;;;;8.46;100.00;99617.59;6043705;23;20061;-89
2023/03/23 03:12:51;;;;;;;0.70;0.70;;;;;;;8.41;100.00;99611.38;6041909;23;20352;-90
2023/03/23 03:15:22;;;;;;;0.65;0.65;;;;;;;8.39;100.00;99611.03;6033988;23;20026;-90
2023/03/23 03:17:56;;;;;;;0.55;0.55;;;;;;;8.41;100.00;99613.38;6066668;23;20022;-89
2023/03/23 03:20:21;;;;;;;;;;;;;;;8.45;100.00;99622.38;6067750;23;20092;-90
2023/03/23 03:22:47;;;;;;;0.30;0.30;;;;;;;8.43;100.00;99624.78;6089890;23;20029;-89
2023/03/23 03:25:17;;;;;;;0.35;0.20;;;;;;;8.33;100.00;99621.06;6042733;23;20017;-89
2023/03/23 03:27:49;;;;;;;0.88;0.88;;;;;;;8.36;100.00;99628.50;6043715;23;20328;-89
2023/03/23 03:30:23;;;;;;;0.38;0.38;;;;;;;8.32;100.00;99616.75;6043810;23;20018;-89
2023/03/23 03:32:53;;;;;;;1.75;0.85;;;;;;;8.33;100.00;99615.53;6042671;23;20045;-89
2023/03/23 03:35:21;;;;;;;2.00;1.17;;;;;;;8.21;100.00;99613.41;6067589;23;20051;-90
2023/03/23 03:37:47;;;;;;;1.05;0.95;;;;;;;8.23;100.00;99615.75;6074268;23;20018;-89
2023/03/23 03:40:19;;;;;;;0.45;0.45;;;;;;;8.21;100.00;99618.94;6042982;23;20022;-89
2023/03/23 03:42:45;;;;;;;0.45;0.45;;;;;;;8.12;100.00;99610.50;6066887;23;20050;-89
2023/03/23 03:45:17;;;;;;;1.85;1.65;;;;;;;8.14;100.00;99624.66;6066827;23;20014;-89
2023/03/23 03:47:43;;;;;;;0.30;0.30;;;;;;;8.13;100.00;99628.59;6065640;23;20460;-89
2023/03/23 03:50:09;;;;;;;0.40;0.40;;;;;;;8.09;100.00;99627.16;6091013;23;20071;-90
2023/03/23 03:52:35;;;;;;;0.77;0.77;;;;;;;8.07;100.00;99629.56;6091018;23;20089;-90
2023/03/23 03:55:02;;;;;;;0.20;0.20;;;;;;;8.06;100.00;99639.81;6066956;23;20061;-89
2023/03/23 03:57:29;;;;;;;0.17;0.17;;;;;;;7.97;100.00;99625.81;6044333;23;20022;-89
2023/03/23 04:00:16;;;;;;;0.60;0.28;;;;;;;7.96;100.00;99640.84;6068405;23;20023;-89
2023/03/23 04:02:51;;;;;;;0.65;0.65;;;;;;;7.87;100.00;99633.16;6068504;23;20022;-89
2023/03/23 04:05:23;;;;;;;1.85;0.80;;;;;;;7.81;100.00;99634.06;6069313;23;20444;-89
2023/03/23 04:07:51;;;;;;;0.93;0.93;;;;;;;7.78;100.00;99634.94;6067000;23;20018;-89
2023/03/23 04:10:22;;;;;;;0.10;0.10;;;;;;;7.74;100.00;99631.47;6090896;23;20010;-89
2023/03/23 04:12:52;;;;;;;0.28;0.28;;;;;;;7.67;100.00;99623.34;6091133;23;20053;-89
2023/03/23 04:15:47;;;;;;;0.15;0.15;;;;;;;7.77;100.00;99630.63;6085821;23;20010;-89
2023/03/23 04:18:14;;;;;;;0.65;0.43;;;;;;;7.78;100.00;99634.94;6090093;23;20746;-89
2023/03/23 04:20:42;;;;;;;0.47;0.43;;;;;;;7.81;100.00;99639.59;6067292;23;20371;-90
2023/03/23 04:23:08;;;;;;;0.95;0.90;;;;;;;7.74;100.00;99634.25;6065670;23;20046;-89
2023/03/23 04:25:35;;;;;;;1.40;0.30;;;;;;;7.65;100.00;99628.50;6067096;23;20121;-90
2023/03/23 04:28:01;;;;;;;0.50;0.50;;;;;;;7.65;100.00;99636.78;6067062;23;20021;-89
2023/03/23 04:30:32;;;;;;;0.38;0.38;;;;;;;7.59;100.00;99631.00;6091326;23;20098;-89
2023/03/23 04:33:05;;;;;;;0.10;0.10;;;;;;;7.50;100.00;99633.56;6068562;23;20022;-90
2023/03/23 04:35:31;;;;;;;0.28;0.28;;;;;;;7.47;100.00;99637.97;6066764;23;20470;-89
2023/03/23 04:38:13;;;;;;;0.30;0.30;;;;;;;7.48;100.00;99628.47;6068819;23;20145;-90
2023/03/23 04:40:41;;;;;;;0.17;0.17;;;;;;;7.52;100.00;99639.44;6067263;23;20053;-89
2023/03/23 04:43:24;;;;;;;0.98;0.90;;;;;;;7.52;100.00;99630.38;6072293;23;20389;-89
2023/03/23 04:46:10;;;;;;;0.30;0.30;;;;;;;7.63;100.00;99637.22;6075280;23;20498;-89
2023/03/23 04:48:39;;;;;;;0.40;0.40;;;;;;;7.69;100.00;99643.00;6090365;23;20018;-89
2023/03/23 04:51:15;;;;;;;0.15;0.15;;;;;;;7.62;100.00;99632.91;6068137;23;20013;-89
2023/03/23 04:53:44;;;;;;;0.40;0.40;;;;;;;7.71;100.00;99635.09;6066852;23;20023;-89
2023/03/23 04:56:10;;;;;;;0.15;0.15;;;;;;;7.63;100.00;99640.00;6066543;23;20526;-89
2023/03/23 04:58:43;;;;;;;0.90;0.85;;;;;;;7.68;100.00;99652.53;6090920;23;20440;-89
2023/03/23 05:01:37;;;;;;;0.77;0.77;;;;;;;7.66;100.00;99654.91;6072345;23;20028;-89
2023/03/23 05:04:19;;;;;;;0.28;0.28;;;;;;;7.61;100.00;99653.44;6068012;23;20018;-89
2023/03/23 05:06:57;;;;;;;0.10;0.10;;;;;;;7.56;100.00;99651.19;6070831;23;20433;-89
2023/03/23 05:09:26;;;;;;;0.43;0.43;;;;;;;7.60;100.00;99651.91;6066753;23;20023;-89
2023/03/23 05:11:53;;;;;;;0.15;0.15;;;;;;;7.61;100.00;99652.66;6065037;23;20027;-89
2023/03/23 05:14:21;;;;;;;0.10;0.10;;;;;;;7.57;100.00;99652.72;6065559;23;20105;-89
2023/03/23 05:16:56;;;;;;;1.13;0.55;;;;;;;7.68;100.00;99666.31;6068206;23;20014;-89
2023/03/23 05:19:22;;;;;;;0.73;0.73;;;;;;;7.72;100.00;99675.31;6065732;23;20018;-89
2023/03/23 05:21:48;;;;;;;0.52;0.52;;;;;;;7.76;100.00;99676.00;6064401;23;20041;-88
2023/03/23 05:24:14;;;;;;;1.20;1.08;;;;;;;7.76;100.00;99664.97;6066130;23;20314;-89
2023/03/23 05:26:40;;;;;;;0.47;0.47;;;;;;;7.86;100.00;99675.78;6089979;23;20466;-90
2023/03/23 05:29:15;;;;;;;0.52;0.50;;;;;;;7.98;100.00;99688.16;6091478;23;20030;-89
2023/03/23 05:31:59;;;;;;;0.50;0.50;;;;;;;8.03;100.00;99673.84;6069069;23;20448;-89
2023/03/23 05:34:26;;;;;;;0.35;0.35;;;;;;;8.22;100.00;99678.53;6066998;23;20022;-89
2023/03/23 05:36:57;;;;;;;0.47;0.47;;;;;;;8.41;100.00;99688.00;6067933;23;20487;-89
2023/03/23 05:39:44;;;;;;;0.15;0.15;;;;;;;8.57;100.00;99678.94;6085830;23;20018;-89
2023/03/23 05:42:28;;;;;;;0.38;0.38;;;;;;;8.65;100.00;99683.09;6067503;23;20208;-88
2023/03/23 05:45:04;;;;;;;0.82;0.82;;;;;;;8.70;100.00;99677.81;6091758;23;20018;-88
2023/03/23 05:47:30;;;;;;;0.88;0.88;;;;;;;8.77;100.00;99674.09;6040358;23;20101;-90
2023/03/23 05:50:02;;;;;;;0.22;0.22;;;;;;;8.82;100.00;99657.75;6066361;23;20499;-89
2023/03/23 05:52:32;;;;;;;0.22;0.22;;;;;;;9.09;100.00;99685.13;6085937;23;20471;-90
2023/03/23 05:54:58;;;;;;;0.45;0.45;;;;;;;9.23;100.00;99687.50;6040514;23;20030;-89
2023/03/23 05:57:24;;;;;;;0.00;0.00;;;;;;;9.35;100.00;99675.69;6063267;23;20026;-89
2023/03/23 06:00:11;;;;;;;0.82;0.80;;;;;;;9.43;100.00;99656.91;6066622;23;20018;-90
2023/03/23 06:02:38;;;;;;;0.20;0.20;;;;;;;9.79;100.00;99684.34;6065432;23;20540;-89
2023/03/23 06:05:06;;;;;;;0.20;0.20;;;;;;;9.67;99.24;99632.47;6039485;23;20022;-92
2023/03/23 06:07:35;;;;;;;0.47;0.47;;;;;;;9.99;96.79;99659.25;6062306;23;20101;-91
2023/03/23 06:10:06;;;;;;;0.63;0.63;;;;;;;10.32;95.26;99668.13;6063080;23;20696;-89
2023/03/23 06:12:38;;;;;;;3.33;1.25;;;;;;;10.34;91.81;99662.94;6113269;23;20345;-90
2023/03/23 06:15:08;;;;;;;1.85;1.75;;;;;;;10.51;89.73;99661.59;6091474;23;20026;-90
2023/03/23 06:18:04;;;;;;;1.27;0.57;;;;;;;10.53;88.34;99664.69;6048529;23;20049;-88
2023/03/23 06:20:46;;;;;;;0.22;0.20;;;;;;;10.61;87.53;99666.00;6069494;23;20066;-90
2023/03/23 06:23:34;;;;;;;1.65;0.90;;;;;;;10.82;86.82;99665.31;6032646;23;20452;-90
2023/03/23 06:26:05;;;;;;;0.57;0.57;;;;;;;10.92;84.58;99658.59;6066911;23;20020;-89
2023/03/23 06:28:32;;;;;;;0.60;0.60;;;;;;;11.18;85.33;99687.84;6066618;23;20026;-89
2023/03/23 06:31:04;;;;;;;0.63;0.63;;;;;;;11.35;83.31;99665.47;6066960;23;20011;-90
2023/03/23 06:33:30;;;;;;;0.68;0.68;;;;;;;11.56;82.09;99664.69;6066309;23;20085;-89
2023/03/23 06:36:16;;;;;;;0.20;0.20;;;;;;;11.76;79.11;99659.63;6051525;23;20337;-89
2023/03/23 06:38:55;;;;;;;0.60;0.55;;;;;;;12.05;74.96;99670.44;6090724;23;20022;-89
2023/03/23 06:41:30;;;;;;;0.63;0.63;;;;;;;12.07;75.46;99674.28;6097140;23;20014;-91
2023/03/23 06:43:55;;;;;;;0.73;0.73;;;;;;;12.28;75.97;99688.59;6119790;23;20032;-89
2023/03/23 06:46:27;;;;;;;0.57;0.57;;;;;;;12.57;75.20;99694.59;6094120;23;20070;-91
2023/03/23 06:49:32;;;;;;;0.20;0.20;;;;;;;12.62;73.64;99669.69;6118448;23;20355;-90
2023/03/23 06:52:10;;;;;;;0.20;0.20;;;;;;;12.72;70.48;99664.94;6094049;23;20013;-90
2023/03/23 06:54:36;;;;;;;0.80;0.80;;;;;;;12.79;69.20;99661.84;6071082;23;20022;-90
2023/03/23 06:57:04;;;;;;;0.28;0.28;;;;;;;13.07;70.18;99666.22;6095576;23;20018;-90
2023/03/23 06:59:30;;;;;;;0.50;0.47;;;;;;;13.27;68.10;99690.88;6096250;23;20392;-89
2023/03/23 07:01:57;;;;;;;1.05;1.00;;;;;;;13.08;66.67;99656.66;6072097;23;20006;-89
2023/03/23 07:04:23;;;;;;;1.20;1.10;;;;;;;12.82;68.79;99688.75;6072018;23;20018;-90
2023/03/23 07:07:20;;;;;;;0.43;0.43;;;;;;;12.84;70.71;99716.94;6060937;23;20438;-90
2023/03/23 07:10:07;;;;;;;4.72;1.20;;;;;;;12.84;70.69;99710.59;6055827;23;20352;-89
2023/03/23 07:12:35;;;;;;;0.05;0.05;;;;;;;12.86;71.43;99716.47;6096830;23;20018;-89
2023/03/23 07:15:02;;;;;;;3.53;0.95;;;;;;;12.91;69.43;99699.94;6096406;23;20020;-89
2023/03/23 07:17:28;;;;;;;0.40;0.40;;;;;;;12.94;68.42;99690.66;6071641;23;20113;-89
2023/03/23 07:20:08;;;;;;;0.70;0.70;;;;;;;13.11;67.97;99693.16;6053902;23;20017;-89
2023/03/23 07:22:34;;;;;;;5.53;2.42;;;;;;;12.88;68.48;99716.78;6095843;23;20425;-89
2023/03/23 07:25:09;;;;;;;1.40;0.55;;;;;;;12.76;70.38;99707.31;6095743;23;20521;-89
2023/03/23 07:27:49;;;;;;;0.40;0.38;;;;;;;12.81;71.58;99720.63;6096489;23;20101;-89
2023/03/23 07:30:16;;;;;;;1.95;1.70;;;;;;;12.77;72.80;99713.66;6095845;23;20057;-89
2023/03/23 07:32:42;;;;;;;0.75;0.75;;;;;;;12.67;73.51;99698.94;6095533;23;20021;-89
2023/03/23 07:35:09;;;;;;;2.72;2.10;;;;;;;12.75;74.28;99711.31;6096156;23;20014;-89
2023/03/23 07:37:54;;;;;;;0.30;0.30;;;;;;;12.82;75.13;99729.78;6102434;23;20271;-90
2023/03/23 07:40:20;;;;;;;0.55;0.55;;;;;;;12.88;74.12;99720.34;6120482;23;20406;-89
2023/03/23 07:42:55;;;;;;;0.55;0.45;;;;;;;12.97;75.10;99714.03;6120631;23;20393;-89
2023/03/23 07:45:46;;;;;;;0.30;0.30;;;;;;;13.12;73.29;99700.28;6117943;23;20018;-89
2023/03/23 07:48:14;;;;;;;0.30;0.30;;;;;;;13.34;72.63;99700.94;6119479;23;20467;-89
2023/03/23 07:50:40;;;;;;;0.55;0.55;;;;;;;13.70;71.47;99723.22;6120733;23;20009;-89
2023/03/23 07:53:09;;;;;;;0.10;0.10;;;;;;;13.60;68.17;99710.53;6119934;23;20010;-89
2023/03/23 07:55:37;;;;;;;0.20;0.20;;;;;;;13.87;69.40;99716.06;6120870;23;20093;-89
2023/03/23 07:58:07;;;;;;;0.00;0.00;;;;;;;14.19;67.13;99730.59;6120770;23;20391;-89
2023/03/23 08:00:33;;;;;;;0.20;0.20;;;;;;;14.23;65.46;99706.09;6096019;23;20029;-89
2023/03/23 08:03:05;;;;;;;0.00;0.00;;;;;;;14.53;63.75;99727.38;6119721;23;20017;-89
2023/03/23 08:05:43;;;;;;;0.10;0.10;;;;;;;14.43;62.01;99711.94;6098626;23;20112;-89
2023/03/23 08:08:36;;;;;;;0.35;0.35;;;;;;;14.59;62.98;99708.75;6120942;23;20021;-89
2023/03/23 08:11:26;;;;;;;0.60;0.60;;;;;;;14.69;61.98;99715.84;6120111;23;20377;-90
2023/03/23 08:14:12;;;;;;;0.95;0.85;;;;;;;14.85;61.35;99715.44;6119737;23;20033;-89
2023/03/23 08:16:38;;;;;;;1.23;1.13;;;;;;;14.85;60.07;99715.44;6120224;23;20117;-90
2023/03/23 08:19:30;;;;;;;1.13;1.02;;;;;;;15.19;59.47;99732.94;6133493;23;20014;-91
2023/03/23 08:22:14;;;;;;;0.82;0.82;;;;;;;15.17;59.04;99735.41;6123078;23;20077;-90
2023/03/23 08:25:00;;;;;;;0.80;0.73;;;;;;;15.09;59.85;99734.22;6121990;23;20069;-89
2023/03/23 08:27:43;;;;;;;0.60;0.45;;;;;;;15.49;60.09;99723.38;6123258;23;20022;-89
2023/03/23 08:30:19;;;;;;;0.50;0.50;;;;;;;15.70;56.52;99716.72;6098978;23;20010;-90
2023/03/23 08:33:17;;;;;;;1.13;0.70;;;;;;;15.74;55.49;99706.09;6125808;23;20141;-90
2023/03/23 08:36:09;;;;;;;0.10;0.10;;;;;;;16.13;54.84;99731.22;6109187;23;20041;-90
2023/03/23 08:38:40;;;;;;;0.82;0.82;;;;;;;15.93;54.94;99700.34;6122742;23;20026;-90
2023/03/23 08:41:23;;;;;;;0.50;0.40;;;;;;;16.06;55.65;99712.00;6099307;23;20009;-90
2023/03/23 08:43:59;;;;;;;0.85;0.85;;;;;;;16.13;54.35;99706.06;6120418;23;20032;-90
2023/03/23 08:46:40;;;;;;;0.63;0.63;;;;;;;16.24;54.03;99703.44;6129791;23;20105;-90
2023/03/23 08:49:25;;;;;;;0.63;0.63;;;;;;;16.78;53.40;99716.75;6121309;23;20029;-90
2023/03/23 08:52:11;;;;;;;0.63;0.63;;;;;;;17.28;50.51;99722.28;6075700;23;20319;-89
2023/03/23 08:54:52;;;;;;;0.88;0.65;;;;;;;17.37;50.93;99730.56;6098679;23;20072;-89
2023/03/23 08:57:30;;;;;;;0.50;0.50;;;;;;;17.29;50.05;99701.41;6120146;23;20025;-90
2023/03/23 09:00:19;;;;;;;0.47;0.47;;;;;;;17.86;49.53;99717.63;6118815;23;20014;-89
2023/03/23 09:03:24;;;;;;;0.22;0.20;;;;;;;17.93;47.93;99701.13;6118181;23;20017;-90
2023/03/23 09:06:13;;;;;;;1.75;0.82;;;;;;;17.92;47.91;99705.19;6099126;23;20436;-90
2023/03/23 09:08:45;;;;;;;0.10;0.10;;;;;;;17.52;48.51;99686.38;6120166;23;20033;-90
2023/03/23 09:11:11;;;;;;;0.52;0.43;;;;;;;17.47;49.39;99695.50;6121283;23;20010;-90
2023/03/23 09:13:38;;;;;;;0.63;0.30;;;;;;;17.32;50.76;99691.25;6119957;23;20010;-90
2023/03/23 09:19:08;;;;;;;0.63;0.50;;;;;;;17.57;50.20;99691.31;6121073;23;20014;-89
2023/03/23 09:21:35;;;;;;;0.88;0.88;;;;;;;17.36;49.28;99678.56;6122185;23;20106;-89
2023/03/23 09:24:05;;;;;;;0.38;0.38;;;;;;;17.47;50.37;99689.88;6122704;23;20344;-90
2023/03/23 09:26:40;;;;;;;3.15;1.23;;;;;;;17.71;49.70;99710.06;6121546;23;20471;-89
2023/03/23 09:29:06;;;;;;;0.47;0.47;;;;;;;17.55;49.29;99679.78;6121678;23;20018;-90
2023/03/23 09:31:32;;;;;;;2.25;1.08;;;;;;;17.86;48.79;99695.19;6122984;23;20438;-90
2023/03/23 09:33:58;;;;;;;0.55;0.45;;;;;;;18.03;48.62;99698.94;6121896;23;20100;-90
2023/03/23 09:36:31;;;;;;;0.52;0.52;;;;;;;18.12;48.11;99691.09;6122502;23;20016;-90
2023/03/23 09:38:57;;;;;;;0.93;0.75;;;;;;;18.07;47.97;99674.22;6123000;23;20425;-90
2023/03/23 09:41:49;;;;;;;0.43;0.43;;;;;;;18.44;47.33;99685.50;6123393;23;20010;-89
2023/03/23 09:44:58;;;;;;;0.40;0.40;;;;;;;18.56;46.75;99671.03;6121633;23;20021;-90
2023/03/23 09:48:01;;;;;;;0.55;0.43;;;;;;;18.44;46.12;99669.38;6121445;23;20049;-90
2023/03/23 09:50:32;;;;;;;1.83;0.70;;;;;;;18.74;46.38;99652.25;6122225;23;20028;-89
2023/03/23 09:53:14;;;;;;;20.05;1.55;;;;;;;19.11;45.50;99641.69;6121943;23;20014;-90
2023/03/23 09:55:40;;;;;;;0.50;0.50;;;;;;;19.22;45.23;99658.59;6121776;23;20021;-90
2023/03/23 09:58:42;;;;;;;0.20;0.20;;;;;;;19.35;44.45;99627.97;6122819;23;20408;-91
2023/03/23 10:01:17;;;;;;;0.40;0.40;;;;;;;19.67;43.32;99644.69;6096158;23;20025;-90
2023/03/23 10:03:44;;;;;;;0.52;0.52;;;;;;;19.90;42.89;99638.59;6120780;23;20025;-91
2023/03/23 10:06:12;;;;;;;0.60;0.60;;;;;;;19.83;41.43;99630.66;6121884;23;20013;-90
2023/03/23 10:08:45;;;;;;;1.20;1.10;;;;;;;19.62;42.39;99622.94;6122791;23;20088;-90
2023/03/23 10:11:13;;;;;;;0.82;0.82;;;;;;;19.91;42.68;99640.13;6121371;23;20073;-90
2023/03/23 10:13:54;;;;;;;0.73;0.73;;;;;;;19.41;42.17;99640.00;6121166;23;20029;-90
2023/03/23 10:16:23;;;;;;;2.63;0.85;;;;;;;19.38;42.24;99623.38;6121792;23;20507;-91
2023/03/23 10:18:58;;;;;;;1.30;0.73;;;;;;;19.59;42.82;99646.47;6145188;23;20376;-90
2023/03/23 10:21:27;;;;;;;0.50;0.50;;;;;;;19.76;42.26;99650.88;6122956;23;20399;-90
2023/03/23 10:23:55;;;;;;;1.00;0.63;;;;;;;19.90;42.03;99627.31;6120801;23;20017;-90
2023/03/23 10:26:42;;;;;;;1.75;0.88;;;;;;;20.29;41.99;99640.66;6145984;23;20507;-91
2023/03/23 10:29:16;;;;;;;0.50;0.50;;;;;;;20.81;40.93;99635.19;6096298;23;20119;-90
2023/03/23 10:31:50;;;;;;;1.08;0.90;;;;;;;20.84;39.48;99600.31;6096736;23;20506;-90
2023/03/23 10:34:28;;;;;;;0.70;0.70;;;;;;;20.90;39.68;99593.38;6120780;23;20014;-91
2023/03/23 10:37:13;;;;;;;0.50;0.50;;;;;;;21.22;38.65;99624.03;6121543;23;20048;-90
2023/03/23 10:39:55;;;;;;;1.33;1.23;;;;;;;21.12;39.16;99622.78;6145747;23;20025;-90
2023/03/23 10:42:28;;;;;;;24.98;1.17;;;;;;;20.84;37.78;99606.72;6123419;23;20020;-89
2023/03/23 10:44:56;;;;;;;0.68;0.68;;;;;;;20.83;38.68;99610.06;6129477;23;20030;-90
2023/03/23 10:47:22;;;;;;;0.70;0.70;;;;;;;20.73;38.74;99614.47;6127844;23;20070;-90
2023/03/23 10:49:58;;;;;;;0.95;0.60;;;;;;;20.83;38.72;99621.31;6131249;23;20021;-90
2023/03/23 10:52:35;;;;;;;0.60;0.47;;;;;;;20.78;38.83;99608.03;6121171;23;20006;-90
2023/03/23 10:55:16;;;;;;;0.63;0.57;;;;;;;20.57;39.07;99609.63;6121108;23;20363;-90
2023/03/23 10:57:45;;;;;;;0.65;0.65;;;;;;;20.43;39.36;99589.69;6122692;23;20014;-90
2023/03/23 11:00:14;;;;;;;0.40;0.40;;;;;;;20.91;39.32;99611.81;6120541;23;20567;-90
2023/03/23 11:03:02;;;;;;;0.57;0.57;;;;;;;20.94;39.49;99604.41;6120519;23;20068;-90
2023/03/23 11:05:41;;;;;;;0.52;0.52;;;;;;;20.83;38.78;99587.50;6120840;23;20014;-90
2023/03/23 11:08:23;;;;;;;1.92;1.00;;;;;;;20.81;39.11;99615.47;6122103;23;20014;-90
2023/03/23 11:10:52;;;;;;;0.65;0.65;;;;;;;20.95;39.17;99603.09;6145607;23;20021;-90
2023/03/23 11:13:20;;;;;;;1.00;0.80;;;;;;;20.91;37.76;99594.13;6122392;23;20021;-90
2023/03/23 11:15:47;;;;;;;1.17;1.08;;;;;;;21.31;38.18;99599.09;6145332;23;20005;-90
2023/03/23 11:18:21;;;;;;;0.55;0.55;;;;;;;21.44;38.13;99587.22;6120452;23;20571;-90
2023/03/23 11:20:51;;;;;;;0.68;0.55;;;;;;;21.83;38.03;99572.84;6121024;23;20400;-90
2023/03/23 11:23:36;;;;;;;1.20;0.80;;;;;;;22.53;36.77;99603.00;6120428;23;20117;-91
2023/03/23 11:26:35;;;;;;;1.45;1.02;;;;;;;22.73;36.23;99568.63;6120737;23;20010;-91
2023/03/23 11:29:16;;;;;;;3.05;1.30;;;;;;;22.92;35.68;99577.16;6104477;23;20353;-91
2023/03/23 11:31:52;;;;;;;1.15;1.05;;;;;;;23.03;35.56;99577.00;6121796;23;20463;-90
2023/03/23 11:34:41;;;;;;;0.55;0.52;;;;;;;22.60;35.89;99596.00;6120620;23;20014;-90
2023/03/23 11:37:15;;;;;;;0.45;0.45;;;;;;;22.80;36.37;99575.75;6121914;23;20018;-90
2023/03/23 11:39:53;;;;;;;1.30;1.02;;;;;;;22.95;36.11;99576.09;6120202;23;20022;-90
2023/03/23 11:42:28;;;;;;;1.35;1.25;;;;;;;23.00;36.76;99577.31;6120373;23;20014;-90
2023/03/23 11:44:54;;;;;;;0.90;0.90;;;;;;;23.12;35.84;99579.47;6121940;23;20022;-90
2023/03/23 11:47:29;;;;;;;1.10;1.02;;;;;;;23.06;36.59;99589.31;6120034;23;20073;-90
2023/03/23 11:50:03;;;;;;;0.80;0.73;;;;;;;22.55;36.52;99565.75;6144819;23;20026;-90
2023/03/23 11:52:46;;;;;;;2.85;1.60;;;;;;;22.54;36.97;99586.81;6120616;23;20018;-89
2023/03/23 11:55:19;;;;;;;1.42;1.33;;;;;;;22.08;37.68;99568.78;6122140;23;20471;-90
2023/03/23 11:57:44;;;;;;;2.63;1.55;;;;;;;21.87;38.87;99581.78;6121139;23;20436;-90
2023/03/23 12:00:19;;;;;;;0.73;0.73;;;;;;;21.72;38.65;99565.22;6095507;23;20022;-90
2023/03/23 12:03:25;;;;;;;0.85;0.85;;;;;;;21.69;39.44;99582.44;6119902;23;20025;-90
2023/03/23 12:06:05;;;;;;;0.93;0.93;;;;;;;21.90;39.21;99572.25;6120367;23;20022;-90
2023/03/23 12:08:45;;;;;;;1.88;1.65;;;;;;;22.35;38.14;99575.47;6120090;23;20021;-90
2023/03/23 12:11:50;;;;;;;2.60;1.35;;;;;;;22.24;38.13;99573.50;6120196;23;20022;-91